sensor_id;sensor_type;location;lat;lon;timestamp;P1;durP1;ratioP1;P2;durP2;ratioP2
30243;SDS011;61465;53.652;9.792;2022-09-01T00:02:11;3.53;;;1.40;;
30243;SDS011;61465;53.652;9.792;2022-09-01T00:04:39;2.08;;;1.45;;
30243;SDS011;61465;53.652;9.792;2022-09-01T00:07:07;4.82;;;1.40;;
30243;SDS011;61465;53.652;9.792;2022-09-01T00:09:34;4.10;;;1.35;;
30243;SDS011;61465;53.652;9.792;2022-09-01T00:12:01;2.67;;;1.50;;
30243;SDS011;61465;53.652;9.792;2022-09-01T00:14:30;1.48;;;1.35;;
30243;SDS011;61465;53.652;9.792;2022-09-01T00:16:59;1.58;;;1.20;;
30243;SDS011;61465;53.652;9.792;2022-09-01T00:19:27;1.45;;;1.33;;
30243;SDS011;61465;53.652;9.792;2022-09-01T00:21:53;2.15;;;1.30;;
30243;SDS011;61465;53.652;9.792;2022-09-01T00:24:20;1.67;;;1.27;;
30243;SDS011;61465;53.652;9.792;2022-09-01T00:26:46;2.00;;;1.63;;
30243;SDS011;61465;53.652;9.792;2022-09-01T00:29:12;2.35;;;1.38;;
30243;SDS011;61465;53.652;9.792;2022-09-01T00:31:39;2.00;;;1.23;;
30243;SDS011;61465;53.652;9.792;2022-09-01T00:34:05;2.57;;;1.40;;
30243;SDS011;61465;53.652;9.792;2022-09-01T00:36:30;1.92;;;1.48;;
30243;SDS011;61465;53.652;9.792;2022-09-01T00:38:56;2.22;;;1.80;;
30243;SDS011;61465;53.652;9.792;2022-09-01T00:41:23;1.90;;;1.55;;
30243;SDS011;61465;53.652;9.792;2022-09-01T00:43:52;2.15;;;1.50;;
30243;SDS011;61465;53.652;9.792;2022-09-01T00:48:50;2.50;;;1.77;;
30243;SDS011;61465;53.652;9.792;2022-09-01T00:51:36;2.47;;;1.90;;
30243;SDS011;61465;53.652;9.792;2022-09-01T00:54:03;5.65;;;2.53;;
30243;SDS011;61465;53.652;9.792;2022-09-01T00:56:31;2.83;;;2.15;;
30243;SDS011;61465;53.652;9.792;2022-09-01T00:58:59;3.00;;;2.13;;
30243;SDS011;61465;53.652;9.792;2022-09-01T01:01:26;2.42;;;1.63;;
30243;SDS011;61465;53.652;9.792;2022-09-01T01:03:51;5.57;;;1.70;;
30243;SDS011;61465;53.652;9.792;2022-09-01T01:06:17;2.75;;;1.90;;
30243;SDS011;61465;53.652;9.792;2022-09-01T01:08:47;3.25;;;1.60;;
30243;SDS011;61465;53.652;9.792;2022-09-01T01:11:20;1.88;;;1.77;;
30243;SDS011;61465;53.652;9.792;2022-09-01T01:13:48;6.22;;;1.55;;
30243;SDS011;61465;53.652;9.792;2022-09-01T01:16:20;1.92;;;1.60;;
30243;SDS011;61465;53.652;9.792;2022-09-01T01:18:48;2.03;;;1.77;;
30243;SDS011;61465;53.652;9.792;2022-09-01T01:21:34;2.13;;;2.00;;
30243;SDS011;61465;53.652;9.792;2022-09-01T01:24:30;2.05;;;1.85;;
30243;SDS011;61465;53.652;9.792;2022-09-01T01:26:58;3.38;;;1.90;;
30243;SDS011;61465;53.652;9.792;2022-09-01T01:29:25;4.53;;;2.13;;
30243;SDS011;61465;53.652;9.792;2022-09-01T01:31:56;2.13;;;1.92;;
30243;SDS011;61465;53.652;9.792;2022-09-01T01:34:22;2.28;;;1.70;;
30243;SDS011;61465;53.652;9.792;2022-09-01T01:36:48;3.60;;;1.90;;
30243;SDS011;61465;53.652;9.792;2022-09-01T01:39:19;2.93;;;1.87;;
30243;SDS011;61465;53.652;9.792;2022-09-01T01:41:50;4.22;;;1.73;;
30243;SDS011;61465;53.652;9.792;2022-09-01T01:44:18;2.92;;;1.80;;
30243;SDS011;61465;53.652;9.792;2022-09-01T01:46:48;1.95;;;1.73;;
30243;SDS011;61465;53.652;9.792;2022-09-01T01:49:16;2.40;;;1.67;;
30243;SDS011;61465;53.652;9.792;2022-09-01T01:51:45;4.32;;;1.95;;
30243;SDS011;61465;53.652;9.792;2022-09-01T01:54:11;3.08;;;1.77;;
30243;SDS011;61465;53.652;9.792;2022-09-01T01:56:38;2.17;;;1.98;;
30243;SDS011;61465;53.652;9.792;2022-09-01T01:59:06;2.35;;;2.00;;
30243;SDS011;61465;53.652;9.792;2022-09-01T02:01:33;2.63;;;2.10;;
30243;SDS011;61465;53.652;9.792;2022-09-01T02:04:00;3.55;;;2.10;;
30243;SDS011;61465;53.652;9.792;2022-09-01T02:06:31;2.80;;;1.90;;
30243;SDS011;61465;53.652;9.792;2022-09-01T02:08:58;3.65;;;2.65;;
30243;SDS011;61465;53.652;9.792;2022-09-01T02:11:27;4.50;;;2.30;;
30243;SDS011;61465;53.652;9.792;2022-09-01T02:13:54;3.35;;;2.00;;
30243;SDS011;61465;53.652;9.792;2022-09-01T02:16:21;2.25;;;1.65;;
30243;SDS011;61465;53.652;9.792;2022-09-01T02:18:48;3.72;;;1.70;;
30243;SDS011;61465;53.652;9.792;2022-09-01T02:21:16;2.20;;;1.92;;
30243;SDS011;61465;53.652;9.792;2022-09-01T02:23:51;2.92;;;1.60;;
30243;SDS011;61465;53.652;9.792;2022-09-01T02:26:30;2.33;;;1.60;;
30243;SDS011;61465;53.652;9.792;2022-09-01T02:29:03;1.95;;;1.45;;
30243;SDS011;61465;53.652;9.792;2022-09-01T02:31:33;3.35;;;1.70;;
30243;SDS011;61465;53.652;9.792;2022-09-01T02:34:03;2.17;;;1.95;;
30243;SDS011;61465;53.652;9.792;2022-09-01T02:36:29;3.63;;;2.00;;
30243;SDS011;61465;53.652;9.792;2022-09-01T02:38:59;3.55;;;2.15;;
30243;SDS011;61465;53.652;9.792;2022-09-01T02:41:24;2.17;;;1.95;;
30243;SDS011;61465;53.652;9.792;2022-09-01T02:43:53;3.00;;;2.00;;
30243;SDS011;61465;53.652;9.792;2022-09-01T02:46:19;4.88;;;2.55;;
30243;SDS011;61465;53.652;9.792;2022-09-01T02:48:47;4.00;;;1.90;;
30243;SDS011;61465;53.652;9.792;2022-09-01T02:51:16;3.40;;;1.88;;
30243;SDS011;61465;53.652;9.792;2022-09-01T02:53:43;2.97;;;1.85;;
30243;SDS011;61465;53.652;9.792;2022-09-01T02:56:17;3.03;;;2.03;;
30243;SDS011;61465;53.652;9.792;2022-09-01T02:58:47;2.35;;;1.95;;
30243;SDS011;61465;53.652;9.792;2022-09-01T03:03:50;2.70;;;2.30;;
30243;SDS011;61465;53.652;9.792;2022-09-01T03:06:18;3.55;;;1.88;;
30243;SDS011;61465;53.652;9.792;2022-09-01T03:08:48;3.25;;;2.38;;
30243;SDS011;61465;53.652;9.792;2022-09-01T03:11:19;5.22;;;2.30;;
30243;SDS011;61465;53.652;9.792;2022-09-01T03:13:45;3.53;;;2.20;;
30243;SDS011;61465;53.652;9.792;2022-09-01T03:16:11;3.25;;;2.22;;
30243;SDS011;61465;53.652;9.792;2022-09-01T03:18:37;3.78;;;2.92;;
30243;SDS011;61465;53.652;9.792;2022-09-01T03:21:11;3.53;;;2.33;;
30243;SDS011;61465;53.652;9.792;2022-09-01T03:23:41;3.53;;;2.20;;
30243;SDS011;61465;53.652;9.792;2022-09-01T03:26:08;3.80;;;2.47;;
30243;SDS011;61465;53.652;9.792;2022-09-01T03:28:34;3.75;;;2.40;;
30243;SDS011;61465;53.652;9.792;2022-09-01T03:31:01;4.63;;;2.50;;
30243;SDS011;61465;53.652;9.792;2022-09-01T03:33:27;10.32;;;2.55;;
30243;SDS011;61465;53.652;9.792;2022-09-01T03:35:55;5.78;;;2.40;;
30243;SDS011;61465;53.652;9.792;2022-09-01T03:38:21;5.03;;;2.33;;
30243;SDS011;61465;53.652;9.792;2022-09-01T03:43:24;3.67;;;2.47;;
30243;SDS011;61465;53.652;9.792;2022-09-01T03:45:51;7.45;;;2.20;;
30243;SDS011;61465;53.652;9.792;2022-09-01T03:48:19;4.28;;;2.50;;
30243;SDS011;61465;53.652;9.792;2022-09-01T03:50:46;3.25;;;2.33;;
30243;SDS011;61465;53.652;9.792;2022-09-01T03:53:19;6.55;;;4.05;;
30243;SDS011;61465;53.652;9.792;2022-09-01T03:55:47;8.10;;;3.72;;
30243;SDS011;61465;53.652;9.792;2022-09-01T04:00:44;5.75;;;2.30;;
30243;SDS011;61465;53.652;9.792;2022-09-01T04:03:12;2.97;;;2.13;;
30243;SDS011;61465;53.652;9.792;2022-09-01T04:05:41;3.58;;;2.40;;
30243;SDS011;61465;53.652;9.792;2022-09-01T04:08:09;4.13;;;2.38;;
30243;SDS011;61465;53.652;9.792;2022-09-01T04:10:38;3.40;;;2.63;;
30243;SDS011;61465;53.652;9.792;2022-09-01T04:13:13;4.65;;;2.33;;
30243;SDS011;61465;53.652;9.792;2022-09-01T04:15:43;5.75;;;2.20;;
30243;SDS011;61465;53.652;9.792;2022-09-01T04:18:10;4.30;;;2.72;;
30243;SDS011;61465;53.652;9.792;2022-09-01T04:20:44;5.70;;;2.60;;
30243;SDS011;61465;53.652;9.792;2022-09-01T04:23:34;3.22;;;2.55;;
30243;SDS011;61465;53.652;9.792;2022-09-01T04:26:05;3.13;;;2.53;;
30243;SDS011;61465;53.652;9.792;2022-09-01T04:28:40;8.38;;;3.25;;
30243;SDS011;61465;53.652;9.792;2022-09-01T04:31:10;7.40;;;3.42;;
30243;SDS011;61465;53.652;9.792;2022-09-01T04:33:41;4.30;;;3.20;;
30243;SDS011;61465;53.652;9.792;2022-09-01T04:36:17;10.48;;;3.00;;
30243;SDS011;61465;53.652;9.792;2022-09-01T04:38:46;5.75;;;3.13;;
30243;SDS011;61465;53.652;9.792;2022-09-01T04:41:14;5.85;;;2.88;;
30243;SDS011;61465;53.652;9.792;2022-09-01T04:46:11;6.22;;;2.75;;
30243;SDS011;61465;53.652;9.792;2022-09-01T04:48:41;4.63;;;3.17;;
30243;SDS011;61465;53.652;9.792;2022-09-01T04:51:09;7.63;;;2.97;;
30243;SDS011;61465;53.652;9.792;2022-09-01T04:53:36;3.13;;;2.72;;
30243;SDS011;61465;53.652;9.792;2022-09-01T04:56:03;5.28;;;2.72;;
30243;SDS011;61465;53.652;9.792;2022-09-01T04:58:34;3.92;;;3.17;;
30243;SDS011;61465;53.652;9.792;2022-09-01T05:01:01;5.68;;;3.00;;
30243;SDS011;61465;53.652;9.792;2022-09-01T05:03:30;8.88;;;3.47;;
30243;SDS011;61465;53.652;9.792;2022-09-01T05:05:56;5.18;;;3.13;;
30243;SDS011;61465;53.652;9.792;2022-09-01T05:08:24;3.90;;;2.97;;
30243;SDS011;61465;53.652;9.792;2022-09-01T05:10:50;3.88;;;2.53;;
30243;SDS011;61465;53.652;9.792;2022-09-01T05:13:18;4.43;;;3.55;;
30243;SDS011;61465;53.652;9.792;2022-09-01T05:15:46;13.50;;;6.70;;
30243;SDS011;61465;53.652;9.792;2022-09-01T05:18:16;6.65;;;4.68;;
30243;SDS011;61465;53.652;9.792;2022-09-01T05:20:47;5.35;;;3.53;;
30243;SDS011;61465;53.652;9.792;2022-09-01T05:23:13;6.70;;;4.25;;
30243;SDS011;61465;53.652;9.792;2022-09-01T05:25:43;4.43;;;3.17;;
30243;SDS011;61465;53.652;9.792;2022-09-01T05:30:40;6.13;;;3.22;;
30243;SDS011;61465;53.652;9.792;2022-09-01T05:33:07;5.03;;;3.58;;
30243;SDS011;61465;53.652;9.792;2022-09-01T05:35:39;4.88;;;3.28;;
30243;SDS011;61465;53.652;9.792;2022-09-01T05:38:07;5.00;;;3.65;;
30243;SDS011;61465;53.652;9.792;2022-09-01T05:40:37;9.93;;;3.92;;
30243;SDS011;61465;53.652;9.792;2022-09-01T05:43:07;6.20;;;4.00;;
30243;SDS011;61465;53.652;9.792;2022-09-01T05:45:36;6.07;;;4.03;;
30243;SDS011;61465;53.652;9.792;2022-09-01T05:48:09;5.45;;;3.53;;
30243;SDS011;61465;53.652;9.792;2022-09-01T05:50:38;7.88;;;4.38;;
30243;SDS011;61465;53.652;9.792;2022-09-01T05:53:06;5.85;;;3.92;;
30243;SDS011;61465;53.652;9.792;2022-09-01T05:55:41;5.80;;;3.72;;
30243;SDS011;61465;53.652;9.792;2022-09-01T05:58:13;5.47;;;3.92;;
30243;SDS011;61465;53.652;9.792;2022-09-01T06:00:40;8.93;;;3.75;;
30243;SDS011;61465;53.652;9.792;2022-09-01T06:03:07;5.25;;;3.83;;
30243;SDS011;61465;53.652;9.792;2022-09-01T06:05:34;5.72;;;3.72;;
30243;SDS011;61465;53.652;9.792;2022-09-01T06:08:01;7.22;;;3.75;;
30243;SDS011;61465;53.652;9.792;2022-09-01T06:10:32;5.03;;;3.55;;
30243;SDS011;61465;53.652;9.792;2022-09-01T06:13:01;4.63;;;3.67;;
30243;SDS011;61465;53.652;9.792;2022-09-01T06:15:30;4.50;;;2.95;;
30243;SDS011;61465;53.652;9.792;2022-09-01T06:17:56;6.70;;;3.40;;
30243;SDS011;61465;53.652;9.792;2022-09-01T06:20:22;4.53;;;3.28;;
30243;SDS011;61465;53.652;9.792;2022-09-01T06:22:48;4.07;;;3.43;;
30243;SDS011;61465;53.652;9.792;2022-09-01T06:25:16;6.50;;;3.90;;
30243;SDS011;61465;53.652;9.792;2022-09-01T06:27:42;5.28;;;3.20;;
30243;SDS011;61465;53.652;9.792;2022-09-01T06:30:09;5.30;;;2.78;;
30243;SDS011;61465;53.652;9.792;2022-09-01T06:32:43;3.55;;;3.13;;
30243;SDS011;61465;53.652;9.792;2022-09-01T06:35:09;4.07;;;2.88;;
30243;SDS011;61465;53.652;9.792;2022-09-01T06:37:36;4.30;;;2.75;;
30243;SDS011;61465;53.652;9.792;2022-09-01T06:42:29;4.93;;;2.92;;
30243;SDS011;61465;53.652;9.792;2022-09-01T06:44:59;4.25;;;2.92;;
30243;SDS011;61465;53.652;9.792;2022-09-01T06:47:27;5.65;;;2.67;;
30243;SDS011;61465;53.652;9.792;2022-09-01T06:49:54;5.93;;;2.75;;
30243;SDS011;61465;53.652;9.792;2022-09-01T06:52:23;4.28;;;2.55;;
30243;SDS011;61465;53.652;9.792;2022-09-01T06:54:51;3.75;;;2.40;;
30243;SDS011;61465;53.652;9.792;2022-09-01T06:57:18;3.08;;;2.35;;
30243;SDS011;61465;53.652;9.792;2022-09-01T06:59:44;2.45;;;2.20;;
30243;SDS011;61465;53.652;9.792;2022-09-01T07:02:09;4.15;;;2.47;;
30243;SDS011;61465;53.652;9.792;2022-09-01T07:04:40;2.75;;;2.10;;
30243;SDS011;61465;53.652;9.792;2022-09-01T07:07:07;4.28;;;2.20;;
30243;SDS011;61465;53.652;9.792;2022-09-01T07:09:34;2.47;;;2.10;;
30243;SDS011;61465;53.652;9.792;2022-09-01T07:11:59;2.92;;;2.30;;
30243;SDS011;61465;53.652;9.792;2022-09-01T07:14:28;2.28;;;1.77;;
30243;SDS011;61465;53.652;9.792;2022-09-01T07:16:54;2.88;;;1.75;;
30243;SDS011;61465;53.652;9.792;2022-09-01T07:19:19;1.90;;;1.70;;
30243;SDS011;61465;53.652;9.792;2022-09-01T07:21:45;2.65;;;1.92;;
30243;SDS011;61465;53.652;9.792;2022-09-01T07:24:11;8.07;;;2.35;;
30243;SDS011;61465;53.652;9.792;2022-09-01T07:26:38;3.10;;;1.45;;
30243;SDS011;61465;53.652;9.792;2022-09-01T07:29:05;1.80;;;1.50;;
30243;SDS011;61465;53.652;9.792;2022-09-01T07:31:33;5.05;;;1.17;;
30243;SDS011;61465;53.652;9.792;2022-09-01T07:34:03;2.50;;;1.13;;
30243;SDS011;61465;53.652;9.792;2022-09-01T07:36:30;2.53;;;1.48;;
30243;SDS011;61465;53.652;9.792;2022-09-01T07:38:57;2.38;;;1.20;;
30243;SDS011;61465;53.652;9.792;2022-09-01T07:41:25;3.90;;;1.10;;
30243;SDS011;61465;53.652;9.792;2022-09-01T07:43:52;5.32;;;1.00;;
30243;SDS011;61465;53.652;9.792;2022-09-01T07:46:20;1.98;;;1.10;;
30243;SDS011;61465;53.652;9.792;2022-09-01T07:48:51;1.95;;;1.00;;
30243;SDS011;61465;53.652;9.792;2022-09-01T07:51:19;2.33;;;0.80;;
30243;SDS011;61465;53.652;9.792;2022-09-01T07:53:46;2.60;;;1.13;;
30243;SDS011;61465;53.652;9.792;2022-09-01T07:56:14;0.90;;;0.70;;
30243;SDS011;61465;53.652;9.792;2022-09-01T07:58:41;3.42;;;0.70;;
30243;SDS011;61465;53.652;9.792;2022-09-01T08:01:07;1.17;;;0.73;;
30243;SDS011;61465;53.652;9.792;2022-09-01T08:03:34;0.70;;;0.68;;
30243;SDS011;61465;53.652;9.792;2022-09-01T08:06:04;0.70;;;0.70;;
30243;SDS011;61465;53.652;9.792;2022-09-01T08:08:32;2.25;;;0.88;;
30243;SDS011;61465;53.652;9.792;2022-09-01T08:10:58;0.70;;;0.70;;
30243;SDS011;61465;53.652;9.792;2022-09-01T08:13:24;1.60;;;0.60;;
30243;SDS011;61465;53.652;9.792;2022-09-01T08:15:50;3.03;;;0.87;;
30243;SDS011;61465;53.652;9.792;2022-09-01T08:18:16;1.10;;;0.70;;
30243;SDS011;61465;53.652;9.792;2022-09-01T08:20:42;2.73;;;0.90;;
30243;SDS011;61465;53.652;9.792;2022-09-01T08:23:16;0.90;;;0.70;;
30243;SDS011;61465;53.652;9.792;2022-09-01T08:25:44;1.17;;;0.50;;
30243;SDS011;61465;53.652;9.792;2022-09-01T08:28:12;1.52;;;0.50;;
30243;SDS011;61465;53.652;9.792;2022-09-01T08:30:40;3.15;;;0.70;;
30243;SDS011;61465;53.652;9.792;2022-09-01T08:33:07;1.20;;;0.70;;
30243;SDS011;61465;53.652;9.792;2022-09-01T08:35:37;0.40;;;0.30;;
30243;SDS011;61465;53.652;9.792;2022-09-01T08:38:03;1.27;;;0.45;;
30243;SDS011;61465;53.652;9.792;2022-09-01T08:40:29;0.57;;;0.40;;
30243;SDS011;61465;53.652;9.792;2022-09-01T08:45:49;0.52;;;0.43;;
30243;SDS011;61465;53.652;9.792;2022-09-01T08:48:24;0.50;;;0.50;;
30243;SDS011;61465;53.652;9.792;2022-09-01T08:53:41;0.50;;;0.50;;
30243;SDS011;61465;53.652;9.792;2022-09-01T08:56:20;0.50;;;0.50;;
30243;SDS011;61465;53.652;9.792;2022-09-01T08:58:47;1.48;;;0.47;;
30243;SDS011;61465;53.652;9.792;2022-09-01T09:01:35;0.97;;;0.47;;
30243;SDS011;61465;53.652;9.792;2022-09-01T09:09:28;2.38;;;0.93;;
30243;SDS011;61465;53.652;9.792;2022-09-01T09:12:11;3.28;;;0.60;;
30243;SDS011;61465;53.652;9.792;2022-09-01T09:14:52;0.55;;;0.50;;
30243;SDS011;61465;53.652;9.792;2022-09-01T09:17:28;1.65;;;0.60;;
30243;SDS011;61465;53.652;9.792;2022-09-01T09:19:58;1.35;;;0.75;;
30243;SDS011;61465;53.652;9.792;2022-09-01T09:22:25;0.43;;;0.40;;
30243;SDS011;61465;53.652;9.792;2022-09-01T09:27:35;2.55;;;0.70;;
30243;SDS011;61465;53.652;9.792;2022-09-01T09:30:04;3.22;;;0.40;;
30243;SDS011;61465;53.652;9.792;2022-09-01T09:37:47;4.15;;;0.68;;
30243;SDS011;61465;53.652;9.792;2022-09-01T09:40:14;1.23;;;0.50;;
30243;SDS011;61465;53.652;9.792;2022-09-01T09:45:38;1.15;;;0.50;;
30243;SDS011;61465;53.652;9.792;2022-09-01T09:48:47;1.38;;;0.60;;
30243;SDS011;61465;53.652;9.792;2022-09-01T09:50:55;2.50;;;0.50;;
30243;SDS011;61465;53.652;9.792;2022-09-01T09:53:40;0.73;;;0.45;;
30243;SDS011;61465;53.652;9.792;2022-09-01T09:56:20;0.40;;;0.40;;
30243;SDS011;61465;53.652;9.792;2022-09-01T09:58:48;1.65;;;0.55;;
30243;SDS011;61465;53.652;9.792;2022-09-01T10:03:48;1.23;;;0.88;;
30243;SDS011;61465;53.652;9.792;2022-09-01T10:06:32;1.15;;;0.47;;
30243;SDS011;61465;53.652;9.792;2022-09-01T10:08:59;2.05;;;0.95;;
30243;SDS011;61465;53.652;9.792;2022-09-01T10:11:37;1.75;;;0.50;;
30243;SDS011;61465;53.652;9.792;2022-09-01T10:14:24;2.40;;;1.20;;
30243;SDS011;61465;53.652;9.792;2022-09-01T10:16:55;0.52;;;0.40;;
30243;SDS011;61465;53.652;9.792;2022-09-01T10:19:28;1.10;;;0.60;;
30243;SDS011;61465;53.652;9.792;2022-09-01T10:21:57;0.60;;;0.50;;
30243;SDS011;61465;53.652;9.792;2022-09-01T10:24:31;1.17;;;0.50;;
30243;SDS011;61465;53.652;9.792;2022-09-01T10:27:03;1.80;;;0.70;;
30243;SDS011;61465;53.652;9.792;2022-09-01T10:29:49;0.70;;;0.40;;
30243;SDS011;61465;53.652;9.792;2022-09-01T10:32:31;0.65;;;0.52;;
30243;SDS011;61465;53.652;9.792;2022-09-01T10:35:02;0.45;;;0.45;;
30243;SDS011;61465;53.652;9.792;2022-09-01T10:37:29;1.58;;;0.65;;
30243;SDS011;61465;53.652;9.792;2022-09-01T10:40:09;1.38;;;0.55;;
30243;SDS011;61465;53.652;9.792;2022-09-01T10:43:44;4.40;;;0.50;;
30243;SDS011;61465;53.652;9.792;2022-09-01T10:45:59;0.80;;;0.70;;
30243;SDS011;61465;53.652;9.792;2022-09-01T10:48:29;2.15;;;0.55;;
30243;SDS011;61465;53.652;9.792;2022-09-01T10:51:58;0.45;;;0.38;;
30243;SDS011;61465;53.652;9.792;2022-09-01T10:53:53;1.30;;;0.57;;
30243;SDS011;61465;53.652;9.792;2022-09-01T10:56:24;1.30;;;0.50;;
30243;SDS011;61465;53.652;9.792;2022-09-01T10:59:29;1.95;;;0.50;;
30243;SDS011;61465;53.652;9.792;2022-09-01T11:05:08;1.05;;;0.82;;
30243;SDS011;61465;53.652;9.792;2022-09-01T11:15:38;0.73;;;0.50;;
30243;SDS011;61465;53.652;9.792;2022-09-01T11:18:07;0.80;;;0.50;;
30243;SDS011;61465;53.652;9.792;2022-09-01T11:20:54;0.73;;;0.50;;
30243;SDS011;61465;53.652;9.792;2022-09-01T11:23:39;2.65;;;0.60;;
30243;SDS011;61465;53.652;9.792;2022-09-01T11:28:56;1.25;;;0.60;;
30243;SDS011;61465;53.652;9.792;2022-09-01T11:31:27;0.93;;;0.70;;
30243;SDS011;61465;53.652;9.792;2022-09-01T11:34:09;1.08;;;0.60;;
30243;SDS011;61465;53.652;9.792;2022-09-01T11:41:53;0.60;;;0.50;;
30243;SDS011;61465;53.652;9.792;2022-09-01T11:47:12;7.65;;;0.70;;
30243;SDS011;61465;53.652;9.792;2022-09-01T11:49:55;0.93;;;0.52;;
30243;SDS011;61465;53.652;9.792;2022-09-01T11:52:30;3.30;;;0.60;;
30243;SDS011;61465;53.652;9.792;2022-09-01T11:54:59;0.90;;;0.50;;
30243;SDS011;61465;53.652;9.792;2022-09-01T11:59:54;0.40;;;0.40;;
30243;SDS011;61465;53.652;9.792;2022-09-01T12:02:23;1.52;;;0.60;;
30243;SDS011;61465;53.652;9.792;2022-09-01T12:04:55;1.40;;;0.70;;
30243;SDS011;61465;53.652;9.792;2022-09-01T12:09:53;2.67;;;0.90;;
30243;SDS011;61465;53.652;9.792;2022-09-01T12:12:27;1.92;;;0.50;;
30243;SDS011;61465;53.652;9.792;2022-09-01T12:15:07;1.75;;;0.90;;
30243;SDS011;61465;53.652;9.792;2022-09-01T12:17:51;1.70;;;0.70;;
30243;SDS011;61465;53.652;9.792;2022-09-01T12:20:23;3.33;;;1.90;;
30243;SDS011;61465;53.652;9.792;2022-09-01T12:22:59;0.73;;;0.60;;
30243;SDS011;61465;53.652;9.792;2022-09-01T12:25:30;0.90;;;0.60;;
30243;SDS011;61465;53.652;9.792;2022-09-01T12:28:03;1.35;;;0.70;;
30243;SDS011;61465;53.652;9.792;2022-09-01T12:30:32;2.05;;;0.68;;
30243;SDS011;61465;53.652;9.792;2022-09-01T12:33:00;1.58;;;0.60;;
30243;SDS011;61465;53.652;9.792;2022-09-01T12:35:29;1.73;;;0.70;;
30243;SDS011;61465;53.652;9.792;2022-09-01T12:40:42;1.02;;;0.90;;
30243;SDS011;61465;53.652;9.792;2022-09-01T12:43:09;0.65;;;0.63;;
30243;SDS011;61465;53.652;9.792;2022-09-01T12:45:40;1.08;;;0.68;;
30243;SDS011;61465;53.652;9.792;2022-09-01T12:48:26;2.13;;;0.60;;
30243;SDS011;61465;53.652;9.792;2022-09-01T12:50:54;2.40;;;0.68;;
30243;SDS011;61465;53.652;9.792;2022-09-01T12:53:30;0.50;;;0.43;;
30243;SDS011;61465;53.652;9.792;2022-09-01T12:56:09;1.17;;;0.90;;
30243;SDS011;61465;53.652;9.792;2022-09-01T12:58:45;3.75;;;0.68;;
30243;SDS011;61465;53.652;9.792;2022-09-01T13:01:26;3.47;;;0.52;;
30243;SDS011;61465;53.652;9.792;2022-09-01T13:04:06;0.73;;;0.65;;
30243;SDS011;61465;53.652;9.792;2022-09-01T13:07:04;0.77;;;0.43;;
30243;SDS011;61465;53.652;9.792;2022-09-01T13:09:31;1.92;;;0.60;;
30243;SDS011;61465;53.652;9.792;2022-09-01T13:12:10;3.00;;;0.70;;
30243;SDS011;61465;53.652;9.792;2022-09-01T13:14:41;2.47;;;0.75;;
30243;SDS011;61465;53.652;9.792;2022-09-01T13:17:06;4.63;;;0.70;;
30243;SDS011;61465;53.652;9.792;2022-09-01T13:19:32;3.10;;;0.70;;
30243;SDS011;61465;53.652;9.792;2022-09-01T13:21:57;2.03;;;0.80;;
30243;SDS011;61465;53.652;9.792;2022-09-01T13:24:23;3.23;;;0.83;;
30243;SDS011;61465;53.652;9.792;2022-09-01T13:26:48;1.37;;;0.60;;
30243;SDS011;61465;53.652;9.792;2022-09-01T13:29:20;1.20;;;0.65;;
30243;SDS011;61465;53.652;9.792;2022-09-01T13:31:46;2.80;;;0.60;;
30243;SDS011;61465;53.652;9.792;2022-09-01T13:34:12;2.23;;;0.60;;
30243;SDS011;61465;53.652;9.792;2022-09-01T13:36:38;1.10;;;0.80;;
30243;SDS011;61465;53.652;9.792;2022-09-01T13:41:30;1.83;;;0.60;;
30243;SDS011;61465;53.652;9.792;2022-09-01T13:43:55;1.03;;;0.60;;
30243;SDS011;61465;53.652;9.792;2022-09-01T13:46:21;0.80;;;0.60;;
30243;SDS011;61465;53.652;9.792;2022-09-01T13:48:47;2.13;;;0.60;;
30243;SDS011;61465;53.652;9.792;2022-09-01T13:51:16;2.10;;;0.60;;
30243;SDS011;61465;53.652;9.792;2022-09-01T13:53:50;2.35;;;0.70;;
30243;SDS011;61465;53.652;9.792;2022-09-01T13:56:16;2.33;;;0.65;;
30243;SDS011;61465;53.652;9.792;2022-09-01T13:58:42;1.53;;;0.60;;
30243;SDS011;61465;53.652;9.792;2022-09-01T14:01:07;1.80;;;0.80;;
30243;SDS011;61465;53.652;9.792;2022-09-01T14:03:33;2.03;;;0.63;;
30243;SDS011;61465;53.652;9.792;2022-09-01T14:05:59;2.97;;;0.70;;
30243;SDS011;61465;53.652;9.792;2022-09-01T14:08:24;1.33;;;0.70;;
30243;SDS011;61465;53.652;9.792;2022-09-01T14:10:51;2.00;;;0.60;;
30243;SDS011;61465;53.652;9.792;2022-09-01T14:15:44;0.95;;;0.50;;
30243;SDS011;61465;53.652;9.792;2022-09-01T14:20:38;3.28;;;0.70;;
30243;SDS011;61465;53.652;9.792;2022-09-01T14:23:06;1.60;;;0.50;;
30243;SDS011;61465;53.652;9.792;2022-09-01T14:25:35;0.63;;;0.50;;
30243;SDS011;61465;53.652;9.792;2022-09-01T14:28:02;4.72;;;0.80;;
30243;SDS011;61465;53.652;9.792;2022-09-01T14:30:30;2.30;;;0.50;;
30243;SDS011;61465;53.652;9.792;2022-09-01T14:32:57;0.50;;;0.50;;
30243;SDS011;61465;53.652;9.792;2022-09-01T14:35:23;1.15;;;0.60;;
30243;SDS011;61465;53.652;9.792;2022-09-01T14:37:50;1.58;;;0.95;;
30243;SDS011;61465;53.652;9.792;2022-09-01T14:40:18;6.22;;;1.02;;
30243;SDS011;61465;53.652;9.792;2022-09-01T14:42:46;3.65;;;0.50;;
30243;SDS011;61465;53.652;9.792;2022-09-01T14:45:13;0.98;;;0.60;;
30243;SDS011;61465;53.652;9.792;2022-09-01T14:47:42;2.97;;;0.68;;
30243;SDS011;61465;53.652;9.792;2022-09-01T14:50:08;1.25;;;0.77;;
30243;SDS011;61465;53.652;9.792;2022-09-01T14:52:34;1.15;;;0.70;;
30243;SDS011;61465;53.652;9.792;2022-09-01T14:55:01;0.50;;;0.50;;
30243;SDS011;61465;53.652;9.792;2022-09-01T14:57:27;3.13;;;0.70;;
30243;SDS011;61465;53.652;9.792;2022-09-01T14:59:52;1.27;;;0.80;;
30243;SDS011;61465;53.652;9.792;2022-09-01T15:02:18;0.70;;;0.70;;
30243;SDS011;61465;53.652;9.792;2022-09-01T15:04:44;1.67;;;0.80;;
30243;SDS011;61465;53.652;9.792;2022-09-01T15:07:09;0.67;;;0.47;;
30243;SDS011;61465;53.652;9.792;2022-09-01T15:09:37;1.75;;;0.63;;
30243;SDS011;61465;53.652;9.792;2022-09-01T15:12:03;0.67;;;0.60;;
30243;SDS011;61465;53.652;9.792;2022-09-01T15:14:30;0.93;;;0.70;;
30243;SDS011;61465;53.652;9.792;2022-09-01T15:16:56;1.92;;;0.82;;
30243;SDS011;61465;53.652;9.792;2022-09-01T15:19:21;4.43;;;0.90;;
30243;SDS011;61465;53.652;9.792;2022-09-01T15:21:48;1.75;;;0.65;;
30243;SDS011;61465;53.652;9.792;2022-09-01T15:24:14;0.57;;;0.50;;
30243;SDS011;61465;53.652;9.792;2022-09-01T15:26:39;1.20;;;0.60;;
30243;SDS011;61465;53.652;9.792;2022-09-01T15:29:05;2.47;;;1.17;;
30243;SDS011;61465;53.652;9.792;2022-09-01T15:31:33;2.15;;;0.90;;
30243;SDS011;61465;53.652;9.792;2022-09-01T15:34:01;2.50;;;1.00;;
30243;SDS011;61465;53.652;9.792;2022-09-01T15:36:28;3.30;;;0.68;;
30243;SDS011;61465;53.652;9.792;2022-09-01T15:38:55;2.10;;;0.68;;
30243;SDS011;61465;53.652;9.792;2022-09-01T15:41:23;2.13;;;0.70;;
30243;SDS011;61465;53.652;9.792;2022-09-01T15:43:51;0.65;;;0.55;;
30243;SDS011;61465;53.652;9.792;2022-09-01T15:46:17;1.58;;;0.80;;
30243;SDS011;61465;53.652;9.792;2022-09-01T15:48:44;1.25;;;0.85;;
30243;SDS011;61465;53.652;9.792;2022-09-01T15:53:51;1.20;;;0.70;;
30243;SDS011;61465;53.652;9.792;2022-09-01T15:56:19;1.85;;;0.70;;
30243;SDS011;61465;53.652;9.792;2022-09-01T15:58:45;2.03;;;0.43;;
30243;SDS011;61465;53.652;9.792;2022-09-01T16:01:12;0.60;;;0.60;;
30243;SDS011;61465;53.652;9.792;2022-09-01T16:03:38;0.80;;;0.45;;
30243;SDS011;61465;53.652;9.792;2022-09-01T16:06:04;3.27;;;0.70;;
30243;SDS011;61465;53.652;9.792;2022-09-01T16:08:30;2.85;;;0.68;;
30243;SDS011;61465;53.652;9.792;2022-09-01T16:10:56;1.92;;;0.60;;
30243;SDS011;61465;53.652;9.792;2022-09-01T16:13:22;0.73;;;0.50;;
30243;SDS011;61465;53.652;9.792;2022-09-01T16:15:50;2.60;;;0.70;;
30243;SDS011;61465;53.652;9.792;2022-09-01T16:18:36;2.88;;;0.75;;
30243;SDS011;61465;53.652;9.792;2022-09-01T16:21:31;1.20;;;0.85;;
30243;SDS011;61465;53.652;9.792;2022-09-01T16:24:02;1.75;;;0.70;;
30243;SDS011;61465;53.652;9.792;2022-09-01T16:26:31;0.50;;;0.50;;